SCBA/BBA METAR and TAF weather

Enter ICAO airport designator
Station Type Date Time Source
SCBA METAR 2022/12/10 02:00 UTC NOAA

SCBA 100200Z AUTO 30018KT 9999 NCD 09/05 Q1011


Station Type Date Time Source
SCBA Decoded METAR 2022/12/10 02:00 UTC NOAA

Balmaceda, Chile (SCBA) 45-55S 071-41W 520M
Dec 09, 2022 - 09:00 PM EST / 2022.12.10 0200 UTC
Wind: from the WNW (300 degrees) at 21 MPH (18 KT):0
Visibility: greater than 7 mile(s):0
Temperature: 48 F (9 C)
Dew Point: 41 F (5 C)
Relative Humidity: 75%
Pressure (altimeter): 29.85 in. Hg (1011 hPa)
ob: SCBA 100200Z AUTO 30018KT 9999 NCD 09/05 Q1011
cycle: 2

Station Type Date Time Source
SCBA TAF 2022/12/09 18:34 UTC NOAA

TAF SCBA 091628Z 0918/1018 30025KT 9999 FEW040 TX15/0919Z TN06/1009Z
TEMPO 0919/0923 30025G40KT
BECMG 1002/1004 30014KT SCT040
BECMG 1014/1016 30025KT

Example: see airport list